This is the latest recevied weather packets stored in our database for station/object LRBM. If no packets are shown the sender has not sent any weather packets the latest 10 day(s).
| Time | Temp. | Humidity | Pressure | Rain* | Wind** | Luminosity | Snow |
|---|---|---|---|---|---|---|---|
| 1777328316 | 2.78° C | 60% | 1020 hPa | - | - | - | - |
| 1777327416 | 2.78° C | 60% | 1020 hPa | - | - | - | - |
| 1777326515 | 5° C | 57% | 1020 hPa | - | - | - | - |
| 1777325616 | 5° C | 57% | 1020 hPa | - | - | - | - |
| 1777324715 | 5° C | 57% | 1020 hPa | - | - | - | - |
| 1777323816 | 5° C | 57% | 1020 hPa | - | - | - | - |
| 1777322916 | 5° C | 57% | 1020 hPa | - | - | - | - |
| 1777322015 | 5° C | 57% | 1020 hPa | - | - | - | - |
| 1777321113 | 7.22° C | 49% | 1020 hPa | - | - | - | - |
| 1777320216 | 7.22° C | 49% | 1020 hPa | - | - | - | - |
| 1777319316 | 7.22° C | 49% | 1020 hPa | - | - | - | - |
| 1777318450 | 7.22° C | 49% | 1020 hPa | - | - | - | - |
| 1777317516 | 7.78° C | 46% | 1020 hPa | - | - | - | - |
| 1777316616 | 7.78° C | 46% | 1020 hPa | - | - | - | - |
| 1777315715 | 8.89° C | 43% | 1020 hPa | - | - | - | - |
| 1777314816 | 8.89° C | 43% | 1020 hPa | - | - | - | - |
| 1777313915 | 8.89° C | 43% | 1020 hPa | - | - | - | - |
| 1777313015 | 8.89° C | 43% | 1020 hPa | - | - | - | - |
| 1777312115 | 11.11° C | 38% | 1020 hPa | - | - | - | - |
| 1777311216 | 11.11° C | 38% | 1020 hPa | - | - | - | - |
| 1777310316 | 12.78° C | 28% | 1020 hPa | - | - | - | - |
| 1777309416 | 12.78° C | 28% | 1020 hPa | - | - | - | - |
| 1777308516 | 15° C | 23% | 1020 hPa | - | - | - | - |
| 1777307615 | 15° C | 23% | 1020 hPa | - | - | - | - |
| 1777306739 | 15° C | 21% | 1020 hPa | - | - | - | - |
* Rain since midnight (hover to see other rain measurements)
** Current wind speed in m/s (hover to see current wind gust speed)